Tropical Cyclones
[Index]
Main Index Home Page Stock Weather Photos Extreme Storms Discussion Storm News and Storm Chasing Reports Tropical Cyclones / Hurricanes / Typhoons Weather Data and Links Wild Fires / Bushfires Weather Observation Techniques Weather Picture Catalogue Tornado Pictures and Reports Stock Video Footage and DVDs for sale
Season 2014-2015 Tropical Cyclone NATHAN Track Map
Season 2014-2015 Summaries: [BoM-AU] [JTWC-AU] [JTWC-SIO] [JTWC-SPAC] [JTWC-SH]
<<- Previous TC | BoM 2014-2015 Season | Next TC ->>

click for intensity scale information  Lat/long Grid: Show Hide

 Date Labels: Show Hide

Bureau of Meteorology Tropical Cyclone Data

Name: NATHAN
Number: 985 / 201415_17

09 Mar 2015 00:00 UTC to 27 Mar 2015 00:00 UTC

    date/time    lat    long    hPa   cat  kts
2015-03-09 00   12.4   151.3                15          
2015-03-09 06   12.4   150.9                15          
2015-03-09 12   12.5   150.4                25          
2015-03-10 00   12.5   149.6    998         30          
2015-03-10 06   13.1   149.0    998         30          
2015-03-10 12   13.1   148.3    993    1    40          
2015-03-10 18   13.5   147.5    991    1    45          
2015-03-11 00   13.8   146.8    990    1    50          
2015-03-11 06   13.8   146.4    986    1    50          
2015-03-11 12   13.9   146.0    985    2    50          
2015-03-11 18   13.8   145.8    986    1    50          
2015-03-12 00   13.9   145.4    987    1    50          
2015-03-12 06   13.9   145.1    982    2    50          
2015-03-12 12   13.8   145.0    980    2    55          
2015-03-12 18   13.5   145.0    981    2    55          
2015-03-13 00   13.4   145.0    980    2    55          
2015-03-13 06   13.4   145.1    979    2    55          
2015-03-13 12   13.2   145.0    982    2    55          
2015-03-13 18   13.1   145.0    980    2    55          
2015-03-14 00   13.3   145.5    989    1    50          
2015-03-14 06   13.1   145.8    990    1    45          
2015-03-14 12   13.3   146.9    995    1    40          
2015-03-14 18   13.4   147.5    994    1    40          
2015-03-15 00   13.2   148.5    995    1    45          
2015-03-15 06   13.7   148.8    989    1    45          
2015-03-15 12   13.7   149.0    987    1    45          
2015-03-15 18   13.8   149.7    985    2    50          
2015-03-16 00   13.9   149.7    988    1    50          
2015-03-16 06   14.0   149.8    984    2    55          
2015-03-16 12   14.1   149.8    989    1    50          
2015-03-16 18   14.3   149.7    990    1    50          
2015-03-17 00   14.5   149.6    994    1    45          
2015-03-17 06   14.7   149.7    993    1    45          
2015-03-17 12   14.9   149.7    996         40          
2015-03-17 18   15.2   149.4    993    1    45          
2015-03-18 00   15.2   149.2    990    1    50          
2015-03-18 06   15.0   149.0    977    2    65          
2015-03-18 12   14.8   148.8    971    2    75          
2015-03-18 18   14.7   148.2    972    2    75          
2015-03-19 00   14.6   147.6    972    2    75          
2015-03-19 06   14.7   146.9    971    2    75          
2015-03-19 12   14.8   146.0    964    3    85          
2015-03-19 18   14.7   145.0    963    3    90          
2015-03-20 00   14.5   144.2    983    2    65          
2015-03-20 06   14.4   143.2    995    1    45          
2015-03-20 12   14.4   142.2    998         40          
2015-03-20 18   14.1   141.4    999         35          
2015-03-21 00   13.7   140.2    999         40          
2015-03-21 06   13.7   139.4    999         40          
2015-03-21 12   13.4   138.5    990    1    50          
2015-03-21 18   13.0   137.3    986    1    60          
2015-03-22 00   12.6   136.8    984    2    60          
2015-03-22 06   12.2   136.1    988    1    55          
2015-03-22 12   11.7   135.6    986    1    55          
2015-03-22 18   11.7   135.2    981    2    60          
2015-03-23 00   11.6   134.7    982    2    60          
2015-03-23 06   11.5   134.5    985    2    55          
2015-03-23 12   11.5   134.3    988    1    50          
2015-03-23 18   11.7   134.0    991    1    45          
2015-03-24 00   12.2   133.5    998         35          
2015-03-24 06   12.5   132.6   1003                     
2015-03-24 12   12.4   132.3   1005                     
2015-03-24 18   12.5   132.0   1006                     
2015-03-25 00   12.8   131.7   1008                     
2015-03-25 06   13.0   130.5   1006                     
2015-03-25 12   13.6   130.2   1009                     
2015-03-25 18   13.7   129.9   1008                     
2015-03-26 00   12.8   128.5   1009                     
2015-03-26 06   13.0   128.0   1008                     
2015-03-26 12   13.0   127.2   1009                     
2015-03-26 18   13.0   126.8   1010                     
2015-03-27 00   13.0   126.0   1010                     
Winds are 10-min average.

Tropical cyclone tracks developed by Michael Bath using data from the Bureau of Meteorology and Google Maps.


[Australian Severe Weather index] [Copyright Notice] [Email Contacts] [Search This Site] [Privacy Policy]
Document: tropical_cyclone_nathan.htm Updated: 29 June 2017